sensor_id;sensor_type;location;lat;lon;timestamp;P1;durP1;ratioP1;P2;durP2;ratioP2
74471;SDS011;73591;53.714;10.514;2023-11-18T00:01:45;10.82;;;3.95;;
74471;SDS011;73591;53.714;10.514;2023-11-18T00:04:10;11.90;;;4.57;;
74471;SDS011;73591;53.714;10.514;2023-11-18T00:06:41;10.43;;;4.93;;
74471;SDS011;73591;53.714;10.514;2023-11-18T00:09:08;8.07;;;3.80;;
74471;SDS011;73591;53.714;10.514;2023-11-18T00:11:34;8.88;;;3.83;;
74471;SDS011;73591;53.714;10.514;2023-11-18T00:14:00;8.35;;;3.63;;
74471;SDS011;73591;53.714;10.514;2023-11-18T00:16:25;7.90;;;4.18;;
74471;SDS011;73591;53.714;10.514;2023-11-18T00:18:51;7.50;;;3.72;;
74471;SDS011;73591;53.714;10.514;2023-11-18T00:21:18;9.73;;;4.82;;
74471;SDS011;73591;53.714;10.514;2023-11-18T00:23:43;11.52;;;4.75;;
74471;SDS011;73591;53.714;10.514;2023-11-18T00:26:10;8.65;;;4.30;;
74471;SDS011;73591;53.714;10.514;2023-11-18T00:28:35;11.82;;;4.18;;
74471;SDS011;73591;53.714;10.514;2023-11-18T00:31:00;8.43;;;4.20;;
74471;SDS011;73591;53.714;10.514;2023-11-18T00:33:26;9.05;;;4.88;;
74471;SDS011;73591;53.714;10.514;2023-11-18T00:35:51;8.05;;;4.03;;
74471;SDS011;73591;53.714;10.514;2023-11-18T00:38:16;8.43;;;3.83;;
74471;SDS011;73591;53.714;10.514;2023-11-18T00:40:42;8.43;;;4.00;;
74471;SDS011;73591;53.714;10.514;2023-11-18T00:43:08;10.25;;;4.30;;
74471;SDS011;73591;53.714;10.514;2023-11-18T00:45:33;11.68;;;3.97;;
74471;SDS011;73591;53.714;10.514;2023-11-18T00:47:58;9.00;;;3.78;;
74471;SDS011;73591;53.714;10.514;2023-11-18T00:50:24;9.90;;;5.05;;
74471;SDS011;73591;53.714;10.514;2023-11-18T00:52:49;9.52;;;4.80;;
74471;SDS011;73591;53.714;10.514;2023-11-18T00:55:14;9.07;;;4.03;;
74471;SDS011;73591;53.714;10.514;2023-11-18T00:57:42;9.07;;;3.88;;
74471;SDS011;73591;53.714;10.514;2023-11-18T01:00:08;8.95;;;4.35;;
74471;SDS011;73591;53.714;10.514;2023-11-18T01:02:39;8.35;;;4.30;;
74471;SDS011;73591;53.714;10.514;2023-11-18T01:05:05;10.02;;;4.18;;
74471;SDS011;73591;53.714;10.514;2023-11-18T01:09:57;7.77;;;3.60;;
74471;SDS011;73591;53.714;10.514;2023-11-18T01:12:22;8.77;;;3.92;;
74471;SDS011;73591;53.714;10.514;2023-11-18T01:14:48;7.03;;;3.53;;
74471;SDS011;73591;53.714;10.514;2023-11-18T01:17:13;7.35;;;3.15;;
74471;SDS011;73591;53.714;10.514;2023-11-18T01:19:39;8.10;;;3.80;;
74471;SDS011;73591;53.714;10.514;2023-11-18T01:22:04;9.75;;;4.05;;
74471;SDS011;73591;53.714;10.514;2023-11-18T01:24:31;10.60;;;4.57;;
74471;SDS011;73591;53.714;10.514;2023-11-18T01:26:57;10.50;;;4.85;;
74471;SDS011;73591;53.714;10.514;2023-11-18T01:29:24;9.48;;;3.85;;
74471;SDS011;73591;53.714;10.514;2023-11-18T01:31:49;10.23;;;4.43;;
74471;SDS011;73591;53.714;10.514;2023-11-18T01:34:14;9.15;;;3.83;;
74471;SDS011;73591;53.714;10.514;2023-11-18T01:36:40;10.43;;;4.90;;
74471;SDS011;73591;53.714;10.514;2023-11-18T01:39:05;8.23;;;3.85;;
74471;SDS011;73591;53.714;10.514;2023-11-18T01:41:32;11.40;;;5.00;;
74471;SDS011;73591;53.714;10.514;2023-11-18T01:43:57;9.93;;;5.07;;
74471;SDS011;73591;53.714;10.514;2023-11-18T01:46:23;8.27;;;4.18;;
74471;SDS011;73591;53.714;10.514;2023-11-18T01:48:49;10.25;;;4.35;;
74471;SDS011;73591;53.714;10.514;2023-11-18T01:51:15;11.15;;;4.60;;
74471;SDS011;73591;53.714;10.514;2023-11-18T01:53:40;10.85;;;4.78;;
74471;SDS011;73591;53.714;10.514;2023-11-18T01:56:07;9.95;;;4.82;;
74471;SDS011;73591;53.714;10.514;2023-11-18T01:58:34;9.18;;;3.97;;
74471;SDS011;73591;53.714;10.514;2023-11-18T02:01:00;11.00;;;4.47;;
74471;SDS011;73591;53.714;10.514;2023-11-18T02:03:26;10.05;;;4.68;;
74471;SDS011;73591;53.714;10.514;2023-11-18T02:05:52;9.98;;;4.47;;
74471;SDS011;73591;53.714;10.514;2023-11-18T02:08:17;9.82;;;4.65;;
74471;SDS011;73591;53.714;10.514;2023-11-18T02:10:54;9.98;;;4.78;;
74471;SDS011;73591;53.714;10.514;2023-11-18T02:13:32;9.73;;;4.47;;
74471;SDS011;73591;53.714;10.514;2023-11-18T02:15:59;8.82;;;4.30;;
74471;SDS011;73591;53.714;10.514;2023-11-18T02:18:25;8.38;;;4.10;;
74471;SDS011;73591;53.714;10.514;2023-11-18T02:20:53;9.30;;;4.05;;
74471;SDS011;73591;53.714;10.514;2023-11-18T02:23:22;9.90;;;3.67;;
74471;SDS011;73591;53.714;10.514;2023-11-18T02:25:48;8.48;;;4.40;;
74471;SDS011;73591;53.714;10.514;2023-11-18T02:28:14;11.40;;;4.43;;
74471;SDS011;73591;53.714;10.514;2023-11-18T02:30:40;11.15;;;4.55;;
74471;SDS011;73591;53.714;10.514;2023-11-18T02:33:17;9.77;;;3.97;;
74471;SDS011;73591;53.714;10.514;2023-11-18T02:35:53;7.25;;;3.38;;
74471;SDS011;73591;53.714;10.514;2023-11-18T02:38:22;10.40;;;3.90;;
74471;SDS011;73591;53.714;10.514;2023-11-18T02:40:56;8.98;;;4.30;;
74471;SDS011;73591;53.714;10.514;2023-11-18T02:43:24;9.63;;;4.45;;
74471;SDS011;73591;53.714;10.514;2023-11-18T02:45:49;10.70;;;4.90;;
74471;SDS011;73591;53.714;10.514;2023-11-18T02:48:16;11.20;;;4.63;;
74471;SDS011;73591;53.714;10.514;2023-11-18T02:50:43;10.40;;;4.70;;
74471;SDS011;73591;53.714;10.514;2023-11-18T02:53:08;13.75;;;5.63;;
74471;SDS011;73591;53.714;10.514;2023-11-18T02:55:34;9.85;;;4.90;;
74471;SDS011;73591;53.714;10.514;2023-11-18T02:58:00;14.73;;;5.40;;
74471;SDS011;73591;53.714;10.514;2023-11-18T03:00:26;12.23;;;5.05;;
74471;SDS011;73591;53.714;10.514;2023-11-18T03:02:51;15.00;;;5.90;;
74471;SDS011;73591;53.714;10.514;2023-11-18T03:05:17;13.30;;;5.70;;
74471;SDS011;73591;53.714;10.514;2023-11-18T03:07:46;12.63;;;5.78;;
74471;SDS011;73591;53.714;10.514;2023-11-18T03:10:15;13.02;;;5.35;;
74471;SDS011;73591;53.714;10.514;2023-11-18T03:12:46;13.77;;;6.35;;
74471;SDS011;73591;53.714;10.514;2023-11-18T03:15:12;17.42;;;6.07;;
74471;SDS011;73591;53.714;10.514;2023-11-18T03:17:37;15.27;;;5.60;;
74471;SDS011;73591;53.714;10.514;2023-11-18T03:20:03;12.95;;;5.78;;
74471;SDS011;73591;53.714;10.514;2023-11-18T03:22:33;11.00;;;4.95;;
74471;SDS011;73591;53.714;10.514;2023-11-18T03:24:58;11.45;;;6.22;;
74471;SDS011;73591;53.714;10.514;2023-11-18T03:27:24;15.05;;;5.68;;
74471;SDS011;73591;53.714;10.514;2023-11-18T03:29:49;11.20;;;5.22;;
74471;SDS011;73591;53.714;10.514;2023-11-18T03:32:14;14.73;;;6.15;;
74471;SDS011;73591;53.714;10.514;2023-11-18T03:34:40;15.15;;;6.03;;
74471;SDS011;73591;53.714;10.514;2023-11-18T03:37:05;13.23;;;5.50;;
74471;SDS011;73591;53.714;10.514;2023-11-18T03:39:30;13.02;;;6.30;;
74471;SDS011;73591;53.714;10.514;2023-11-18T03:41:56;12.02;;;5.78;;
74471;SDS011;73591;53.714;10.514;2023-11-18T03:44:22;13.38;;;5.90;;
74471;SDS011;73591;53.714;10.514;2023-11-18T03:46:49;13.90;;;5.75;;
74471;SDS011;73591;53.714;10.514;2023-11-18T03:49:14;12.63;;;6.35;;
74471;SDS011;73591;53.714;10.514;2023-11-18T03:51:40;12.48;;;6.22;;
74471;SDS011;73591;53.714;10.514;2023-11-18T03:54:05;13.85;;;5.85;;
74471;SDS011;73591;53.714;10.514;2023-11-18T03:56:33;13.60;;;6.32;;
74471;SDS011;73591;53.714;10.514;2023-11-18T03:58:58;13.85;;;6.53;;
74471;SDS011;73591;53.714;10.514;2023-11-18T04:01:24;13.95;;;7.10;;
74471;SDS011;73591;53.714;10.514;2023-11-18T04:03:54;14.35;;;5.93;;
74471;SDS011;73591;53.714;10.514;2023-11-18T04:06:22;11.90;;;6.25;;
74471;SDS011;73591;53.714;10.514;2023-11-18T04:08:49;12.20;;;6.07;;
74471;SDS011;73591;53.714;10.514;2023-11-18T04:11:14;15.05;;;6.10;;
74471;SDS011;73591;53.714;10.514;2023-11-18T04:13:40;13.68;;;6.43;;
74471;SDS011;73591;53.714;10.514;2023-11-18T04:16:09;11.20;;;5.70;;
74471;SDS011;73591;53.714;10.514;2023-11-18T04:18:37;12.13;;;5.68;;
74471;SDS011;73591;53.714;10.514;2023-11-18T04:21:04;14.05;;;6.70;;
74471;SDS011;73591;53.714;10.514;2023-11-18T04:23:29;16.10;;;6.47;;
74471;SDS011;73591;53.714;10.514;2023-11-18T04:25:55;12.75;;;6.13;;
74471;SDS011;73591;53.714;10.514;2023-11-18T04:28:21;16.02;;;7.15;;
74471;SDS011;73591;53.714;10.514;2023-11-18T04:30:46;13.55;;;6.53;;
74471;SDS011;73591;53.714;10.514;2023-11-18T04:33:11;13.75;;;6.57;;
74471;SDS011;73591;53.714;10.514;2023-11-18T04:35:39;14.15;;;6.70;;
74471;SDS011;73591;53.714;10.514;2023-11-18T04:38:04;15.82;;;6.80;;
74471;SDS011;73591;53.714;10.514;2023-11-18T04:40:29;14.02;;;6.15;;
74471;SDS011;73591;53.714;10.514;2023-11-18T04:42:55;16.50;;;6.53;;
74471;SDS011;73591;53.714;10.514;2023-11-18T04:45:21;14.18;;;6.70;;
74471;SDS011;73591;53.714;10.514;2023-11-18T04:47:46;16.23;;;6.50;;
74471;SDS011;73591;53.714;10.514;2023-11-18T04:50:11;12.43;;;6.07;;
74471;SDS011;73591;53.714;10.514;2023-11-18T04:52:37;13.20;;;6.10;;
74471;SDS011;73591;53.714;10.514;2023-11-18T04:55:03;11.18;;;5.60;;
74471;SDS011;73591;53.714;10.514;2023-11-18T04:57:30;14.55;;;6.32;;
74471;SDS011;73591;53.714;10.514;2023-11-18T04:59:55;13.50;;;6.05;;
74471;SDS011;73591;53.714;10.514;2023-11-18T05:02:21;13.32;;;6.38;;
74471;SDS011;73591;53.714;10.514;2023-11-18T05:04:47;13.38;;;5.93;;
74471;SDS011;73591;53.714;10.514;2023-11-18T05:07:12;14.05;;;7.00;;
74471;SDS011;73591;53.714;10.514;2023-11-18T05:09:37;14.70;;;6.18;;
74471;SDS011;73591;53.714;10.514;2023-11-18T05:12:03;13.02;;;5.50;;
74471;SDS011;73591;53.714;10.514;2023-11-18T05:14:28;12.32;;;5.68;;
74471;SDS011;73591;53.714;10.514;2023-11-18T05:16:53;13.23;;;6.20;;
74471;SDS011;73591;53.714;10.514;2023-11-18T05:19:19;14.88;;;6.32;;
74471;SDS011;73591;53.714;10.514;2023-11-18T05:21:44;15.13;;;6.10;;
74471;SDS011;73591;53.714;10.514;2023-11-18T05:24:14;12.32;;;5.65;;
74471;SDS011;73591;53.714;10.514;2023-11-18T05:26:39;12.70;;;6.78;;
74471;SDS011;73591;53.714;10.514;2023-11-18T05:29:05;14.20;;;6.20;;
74471;SDS011;73591;53.714;10.514;2023-11-18T05:31:31;11.40;;;5.43;;
74471;SDS011;73591;53.714;10.514;2023-11-18T05:33:57;12.95;;;6.07;;
74471;SDS011;73591;53.714;10.514;2023-11-18T05:36:23;12.32;;;5.97;;
74471;SDS011;73591;53.714;10.514;2023-11-18T05:38:52;11.98;;;5.65;;
74471;SDS011;73591;53.714;10.514;2023-11-18T05:41:20;14.60;;;5.97;;
74471;SDS011;73591;53.714;10.514;2023-11-18T05:43:53;11.35;;;5.63;;
74471;SDS011;73591;53.714;10.514;2023-11-18T05:46:21;13.48;;;6.55;;
74471;SDS011;73591;53.714;10.514;2023-11-18T05:48:49;11.93;;;6.05;;
74471;SDS011;73591;53.714;10.514;2023-11-18T05:51:18;13.32;;;5.65;;
74471;SDS011;73591;53.714;10.514;2023-11-18T05:53:44;12.38;;;6.18;;
74471;SDS011;73591;53.714;10.514;2023-11-18T05:56:11;12.68;;;5.60;;
74471;SDS011;73591;53.714;10.514;2023-11-18T05:58:36;14.13;;;5.78;;
74471;SDS011;73591;53.714;10.514;2023-11-18T06:01:03;14.80;;;6.10;;
74471;SDS011;73591;53.714;10.514;2023-11-18T06:03:30;14.63;;;5.88;;
74471;SDS011;73591;53.714;10.514;2023-11-18T06:05:55;13.25;;;6.78;;
74471;SDS011;73591;53.714;10.514;2023-11-18T06:08:21;11.70;;;6.00;;
74471;SDS011;73591;53.714;10.514;2023-11-18T06:10:47;13.32;;;6.22;;
74471;SDS011;73591;53.714;10.514;2023-11-18T06:13:13;11.85;;;6.28;;
74471;SDS011;73591;53.714;10.514;2023-11-18T06:15:41;11.43;;;5.93;;
74471;SDS011;73591;53.714;10.514;2023-11-18T06:18:08;14.65;;;6.20;;
74471;SDS011;73591;53.714;10.514;2023-11-18T06:20:34;12.77;;;6.20;;
74471;SDS011;73591;53.714;10.514;2023-11-18T06:25:25;14.18;;;5.65;;
74471;SDS011;73591;53.714;10.514;2023-11-18T06:27:51;11.80;;;5.68;;
74471;SDS011;73591;53.714;10.514;2023-11-18T06:30:17;12.55;;;5.22;;
74471;SDS011;73591;53.714;10.514;2023-11-18T06:35:09;13.83;;;5.60;;
74471;SDS011;73591;53.714;10.514;2023-11-18T06:37:36;11.75;;;5.50;;
74471;SDS011;73591;53.714;10.514;2023-11-18T06:40:02;12.73;;;5.55;;
74471;SDS011;73591;53.714;10.514;2023-11-18T06:42:31;10.82;;;4.95;;
74471;SDS011;73591;53.714;10.514;2023-11-18T06:44:56;12.77;;;6.47;;
74471;SDS011;73591;53.714;10.514;2023-11-18T06:47:22;11.15;;;5.30;;
74471;SDS011;73591;53.714;10.514;2023-11-18T06:49:48;16.10;;;5.93;;
74471;SDS011;73591;53.714;10.514;2023-11-18T06:52:13;11.23;;;5.85;;
74471;SDS011;73591;53.714;10.514;2023-11-18T06:54:41;16.15;;;6.28;;
74471;SDS011;73591;53.714;10.514;2023-11-18T06:57:07;15.43;;;6.55;;
74471;SDS011;73591;53.714;10.514;2023-11-18T06:59:32;14.43;;;6.32;;
74471;SDS011;73591;53.714;10.514;2023-11-18T07:01:57;13.73;;;6.07;;
74471;SDS011;73591;53.714;10.514;2023-11-18T07:04:23;13.05;;;6.28;;
74471;SDS011;73591;53.714;10.514;2023-11-18T07:06:49;11.35;;;5.20;;
74471;SDS011;73591;53.714;10.514;2023-11-18T07:09:14;12.07;;;6.05;;
74471;SDS011;73591;53.714;10.514;2023-11-18T07:11:45;11.77;;;5.57;;
74471;SDS011;73591;53.714;10.514;2023-11-18T07:14:12;12.23;;;5.68;;
74471;SDS011;73591;53.714;10.514;2023-11-18T07:16:38;11.20;;;5.53;;
74471;SDS011;73591;53.714;10.514;2023-11-18T07:19:04;14.15;;;7.53;;
74471;SDS011;73591;53.714;10.514;2023-11-18T07:21:29;13.85;;;6.45;;
74471;SDS011;73591;53.714;10.514;2023-11-18T07:23:55;11.88;;;6.10;;
74471;SDS011;73591;53.714;10.514;2023-11-18T07:26:21;13.18;;;6.32;;
74471;SDS011;73591;53.714;10.514;2023-11-18T07:28:47;13.07;;;5.88;;
74471;SDS011;73591;53.714;10.514;2023-11-18T07:31:12;10.88;;;5.90;;
74471;SDS011;73591;53.714;10.514;2023-11-18T07:33:37;10.02;;;5.97;;
74471;SDS011;73591;53.714;10.514;2023-11-18T07:36:03;16.70;;;6.32;;
74471;SDS011;73591;53.714;10.514;2023-11-18T07:38:31;11.48;;;5.80;;
74471;SDS011;73591;53.714;10.514;2023-11-18T07:40:57;12.18;;;5.60;;
74471;SDS011;73591;53.714;10.514;2023-11-18T07:43:22;12.80;;;5.90;;
74471;SDS011;73591;53.714;10.514;2023-11-18T07:45:48;13.55;;;6.20;;
74471;SDS011;73591;53.714;10.514;2023-11-18T07:48:18;10.77;;;5.03;;
74471;SDS011;73591;53.714;10.514;2023-11-18T07:50:45;14.05;;;5.88;;
74471;SDS011;73591;53.714;10.514;2023-11-18T07:53:12;14.32;;;5.93;;
74471;SDS011;73591;53.714;10.514;2023-11-18T07:55:37;14.30;;;6.70;;
74471;SDS011;73591;53.714;10.514;2023-11-18T07:58:06;13.07;;;6.72;;
74471;SDS011;73591;53.714;10.514;2023-11-18T08:00:42;13.38;;;6.78;;
74471;SDS011;73591;53.714;10.514;2023-11-18T08:03:10;12.88;;;6.32;;
74471;SDS011;73591;53.714;10.514;2023-11-18T08:05:43;13.57;;;6.60;;
74471;SDS011;73591;53.714;10.514;2023-11-18T08:08:12;11.65;;;6.32;;
74471;SDS011;73591;53.714;10.514;2023-11-18T08:10:38;13.45;;;6.93;;
74471;SDS011;73591;53.714;10.514;2023-11-18T08:13:04;11.40;;;6.00;;
74471;SDS011;73591;53.714;10.514;2023-11-18T08:15:31;13.68;;;6.75;;
74471;SDS011;73591;53.714;10.514;2023-11-18T08:17:57;13.00;;;6.50;;
74471;SDS011;73591;53.714;10.514;2023-11-18T08:20:22;13.82;;;6.57;;
74471;SDS011;73591;53.714;10.514;2023-11-18T08:22:50;15.70;;;6.65;;
74471;SDS011;73591;53.714;10.514;2023-11-18T08:25:15;13.35;;;6.97;;
74471;SDS011;73591;53.714;10.514;2023-11-18T08:30:08;12.02;;;6.63;;
74471;SDS011;73591;53.714;10.514;2023-11-18T08:32:37;11.68;;;5.70;;
74471;SDS011;73591;53.714;10.514;2023-11-18T08:35:04;13.52;;;7.22;;
74471;SDS011;73591;53.714;10.514;2023-11-18T08:37:33;12.10;;;6.07;;
74471;SDS011;73591;53.714;10.514;2023-11-18T08:40:01;12.35;;;5.93;;
74471;SDS011;73591;53.714;10.514;2023-11-18T08:42:27;13.27;;;6.20;;
74471;SDS011;73591;53.714;10.514;2023-11-18T08:44:54;11.32;;;5.50;;
74471;SDS011;73591;53.714;10.514;2023-11-18T08:47:20;11.07;;;5.57;;
74471;SDS011;73591;53.714;10.514;2023-11-18T08:49:46;12.88;;;6.25;;
74471;SDS011;73591;53.714;10.514;2023-11-18T08:52:11;12.10;;;5.80;;
74471;SDS011;73591;53.714;10.514;2023-11-18T08:54:37;10.40;;;5.63;;
74471;SDS011;73591;53.714;10.514;2023-11-18T08:57:23;10.43;;;5.35;;
74471;SDS011;73591;53.714;10.514;2023-11-18T08:59:50;10.10;;;5.05;;
74471;SDS011;73591;53.714;10.514;2023-11-18T09:02:17;8.98;;;5.20;;
74471;SDS011;73591;53.714;10.514;2023-11-18T09:04:48;10.07;;;5.47;;
74471;SDS011;73591;53.714;10.514;2023-11-18T09:07:14;9.13;;;4.70;;
74471;SDS011;73591;53.714;10.514;2023-11-18T09:09:40;8.73;;;4.25;;
74471;SDS011;73591;53.714;10.514;2023-11-18T09:12:05;8.25;;;4.03;;
74471;SDS011;73591;53.714;10.514;2023-11-18T09:14:33;8.70;;;5.15;;
74471;SDS011;73591;53.714;10.514;2023-11-18T09:16:58;9.85;;;5.38;;
74471;SDS011;73591;53.714;10.514;2023-11-18T09:19:24;8.43;;;4.22;;
74471;SDS011;73591;53.714;10.514;2023-11-18T09:21:50;7.80;;;3.83;;
74471;SDS011;73591;53.714;10.514;2023-11-18T09:24:17;9.43;;;3.83;;
74471;SDS011;73591;53.714;10.514;2023-11-18T09:26:45;9.52;;;3.65;;
74471;SDS011;73591;53.714;10.514;2023-11-18T09:29:13;6.53;;;3.40;;
74471;SDS011;73591;53.714;10.514;2023-11-18T09:31:42;6.43;;;3.40;;
74471;SDS011;73591;53.714;10.514;2023-11-18T09:34:08;7.57;;;4.32;;
74471;SDS011;73591;53.714;10.514;2023-11-18T09:36:40;8.30;;;4.63;;
74471;SDS011;73591;53.714;10.514;2023-11-18T09:39:08;9.10;;;4.18;;
74471;SDS011;73591;53.714;10.514;2023-11-18T09:41:34;8.75;;;4.40;;
74471;SDS011;73591;53.714;10.514;2023-11-18T09:43:59;8.60;;;4.45;;
74471;SDS011;73591;53.714;10.514;2023-11-18T09:46:27;8.70;;;4.40;;
74471;SDS011;73591;53.714;10.514;2023-11-18T09:51:52;9.23;;;4.53;;
74471;SDS011;73591;53.714;10.514;2023-11-18T09:57:31;8.23;;;4.53;;
74471;SDS011;73591;53.714;10.514;2023-11-18T10:00:06;11.10;;;5.22;;
74471;SDS011;73591;53.714;10.514;2023-11-18T10:02:48;11.10;;;5.07;;
74471;SDS011;73591;53.714;10.514;2023-11-18T10:05:15;10.18;;;4.82;;
74471;SDS011;73591;53.714;10.514;2023-11-18T10:07:45;8.90;;;4.95;;
74471;SDS011;73591;53.714;10.514;2023-11-18T10:10:12;8.85;;;4.20;;
74471;SDS011;73591;53.714;10.514;2023-11-18T10:12:43;11.05;;;4.70;;
74471;SDS011;73591;53.714;10.514;2023-11-18T10:15:17;8.45;;;4.38;;
74471;SDS011;73591;53.714;10.514;2023-11-18T10:17:44;7.85;;;4.60;;
74471;SDS011;73591;53.714;10.514;2023-11-18T10:20:22;5.45;;;2.90;;
74471;SDS011;73591;53.714;10.514;2023-11-18T10:22:59;7.82;;;4.15;;
74471;SDS011;73591;53.714;10.514;2023-11-18T10:25:30;7.20;;;3.58;;
74471;SDS011;73591;53.714;10.514;2023-11-18T10:27:56;7.60;;;4.22;;
74471;SDS011;73591;53.714;10.514;2023-11-18T10:30:22;6.90;;;3.70;;
74471;SDS011;73591;53.714;10.514;2023-11-18T10:32:58;6.05;;;3.08;;
74471;SDS011;73591;53.714;10.514;2023-11-18T10:35:40;10.35;;;3.70;;
74471;SDS011;73591;53.714;10.514;2023-11-18T10:38:15;5.47;;;2.90;;
74471;SDS011;73591;53.714;10.514;2023-11-18T10:40:41;5.57;;;3.05;;
74471;SDS011;73591;53.714;10.514;2023-11-18T10:43:07;6.35;;;3.42;;
74471;SDS011;73591;53.714;10.514;2023-11-18T10:45:34;6.78;;;3.28;;
74471;SDS011;73591;53.714;10.514;2023-11-18T10:48:05;4.95;;;2.90;;
74471;SDS011;73591;53.714;10.514;2023-11-18T10:50:30;5.82;;;2.88;;
74471;SDS011;73591;53.714;10.514;2023-11-18T10:52:57;6.15;;;2.60;;
74471;SDS011;73591;53.714;10.514;2023-11-18T10:55:34;6.18;;;2.75;;
74471;SDS011;73591;53.714;10.514;2023-11-18T10:58:02;5.68;;;3.03;;
74471;SDS011;73591;53.714;10.514;2023-11-18T11:00:29;6.60;;;3.40;;
74471;SDS011;73591;53.714;10.514;2023-11-18T11:03:09;5.22;;;2.40;;
74471;SDS011;73591;53.714;10.514;2023-11-18T11:05:39;5.38;;;2.80;;
74471;SDS011;73591;53.714;10.514;2023-11-18T11:08:06;5.32;;;2.90;;
74471;SDS011;73591;53.714;10.514;2023-11-18T11:10:32;4.95;;;2.45;;
74471;SDS011;73591;53.714;10.514;2023-11-18T11:13:00;5.13;;;2.65;;
74471;SDS011;73591;53.714;10.514;2023-11-18T11:15:30;6.05;;;3.13;;
74471;SDS011;73591;53.714;10.514;2023-11-18T11:20:34;5.22;;;2.65;;
74471;SDS011;73591;53.714;10.514;2023-11-18T11:23:14;5.43;;;2.40;;
74471;SDS011;73591;53.714;10.514;2023-11-18T11:26:04;6.15;;;2.20;;
74471;SDS011;73591;53.714;10.514;2023-11-18T11:31:42;4.57;;;1.92;;
74471;SDS011;73591;53.714;10.514;2023-11-18T11:34:14;4.25;;;1.77;;
74471;SDS011;73591;53.714;10.514;2023-11-18T11:36:46;5.43;;;2.17;;
74471;SDS011;73591;53.714;10.514;2023-11-18T11:39:13;3.72;;;2.28;;
74471;SDS011;73591;53.714;10.514;2023-11-18T11:41:46;4.13;;;2.05;;
74471;SDS011;73591;53.714;10.514;2023-11-18T11:44:16;4.13;;;2.13;;
74471;SDS011;73591;53.714;10.514;2023-11-18T11:46:44;3.40;;;1.50;;
74471;SDS011;73591;53.714;10.514;2023-11-18T11:49:10;3.33;;;1.38;;
74471;SDS011;73591;53.714;10.514;2023-11-18T11:52:15;3.25;;;1.00;;
74471;SDS011;73591;53.714;10.514;2023-11-18T11:54:48;3.67;;;1.90;;
74471;SDS011;73591;53.714;10.514;2023-11-18T11:57:24;4.38;;;2.17;;
74471;SDS011;73591;53.714;10.514;2023-11-18T12:02:24;3.90;;;1.38;;
74471;SDS011;73591;53.714;10.514;2023-11-18T12:04:54;3.65;;;2.00;;
74471;SDS011;73591;53.714;10.514;2023-11-18T12:07:23;3.10;;;1.60;;
74471;SDS011;73591;53.714;10.514;2023-11-18T12:09:55;6.15;;;1.85;;
74471;SDS011;73591;53.714;10.514;2023-11-18T12:12:22;7.25;;;3.05;;
74471;SDS011;73591;53.714;10.514;2023-11-18T12:23:19;6.10;;;3.00;;
74471;SDS011;73591;53.714;10.514;2023-11-18T12:25:48;5.20;;;2.35;;
74471;SDS011;73591;53.714;10.514;2023-11-18T12:28:17;4.30;;;1.80;;
74471;SDS011;73591;53.714;10.514;2023-11-18T12:30:46;4.30;;;2.30;;
74471;SDS011;73591;53.714;10.514;2023-11-18T12:33:20;3.83;;;1.60;;
74471;SDS011;73591;53.714;10.514;2023-11-18T12:43:48;4.00;;;1.80;;
74471;SDS011;73591;53.714;10.514;2023-11-18T12:49:08;4.65;;;1.77;;
74471;SDS011;73591;53.714;10.514;2023-11-18T12:51:40;6.35;;;2.38;;
74471;SDS011;73591;53.714;10.514;2023-11-18T12:54:08;7.47;;;2.78;;
74471;SDS011;73591;53.714;10.514;2023-11-18T12:56:34;11.70;;;3.65;;
74471;SDS011;73591;53.714;10.514;2023-11-18T12:58:59;11.70;;;4.95;;
74471;SDS011;73591;53.714;10.514;2023-11-18T13:01:25;12.63;;;5.75;;
74471;SDS011;73591;53.714;10.514;2023-11-18T13:03:52;6.63;;;3.00;;
74471;SDS011;73591;53.714;10.514;2023-11-18T13:06:18;9.13;;;4.45;;
74471;SDS011;73591;53.714;10.514;2023-11-18T13:08:43;4.82;;;1.70;;
74471;SDS011;73591;53.714;10.514;2023-11-18T13:11:09;3.42;;;1.52;;
74471;SDS011;73591;53.714;10.514;2023-11-18T13:13:44;3.42;;;1.63;;
74471;SDS011;73591;53.714;10.514;2023-11-18T13:16:09;3.22;;;1.63;;
74471;SDS011;73591;53.714;10.514;2023-11-18T13:18:41;3.70;;;1.95;;
74471;SDS011;73591;53.714;10.514;2023-11-18T13:21:12;4.45;;;1.90;;
74471;SDS011;73591;53.714;10.514;2023-11-18T13:23:39;5.32;;;1.85;;
74471;SDS011;73591;53.714;10.514;2023-11-18T13:26:04;4.78;;;2.00;;
74471;SDS011;73591;53.714;10.514;2023-11-18T13:28:31;4.45;;;2.17;;
74471;SDS011;73591;53.714;10.514;2023-11-18T13:30:57;4.78;;;2.00;;
74471;SDS011;73591;53.714;10.514;2023-11-18T13:33:22;5.03;;;2.75;;
74471;SDS011;73591;53.714;10.514;2023-11-18T13:35:48;4.57;;;2.65;;
74471;SDS011;73591;53.714;10.514;2023-11-18T13:38:14;4.93;;;2.60;;
74471;SDS011;73591;53.714;10.514;2023-11-18T13:40:43;5.07;;;2.47;;
74471;SDS011;73591;53.714;10.514;2023-11-18T13:43:08;7.35;;;2.60;;
74471;SDS011;73591;53.714;10.514;2023-11-18T13:45:33;5.25;;;2.63;;
74471;SDS011;73591;53.714;10.514;2023-11-18T13:47:59;7.82;;;2.72;;
74471;SDS011;73591;53.714;10.514;2023-11-18T13:50:26;7.03;;;3.08;;
74471;SDS011;73591;53.714;10.514;2023-11-18T13:55:18;7.30;;;3.58;;
74471;SDS011;73591;53.714;10.514;2023-11-18T13:57:50;5.57;;;2.42;;
74471;SDS011;73591;53.714;10.514;2023-11-18T14:00:17;4.60;;;2.22;;
74471;SDS011;73591;53.714;10.514;2023-11-18T14:02:42;4.18;;;2.10;;
74471;SDS011;73591;53.714;10.514;2023-11-18T14:05:17;4.70;;;2.10;;
74471;SDS011;73591;53.714;10.514;2023-11-18T14:07:45;6.30;;;2.10;;
74471;SDS011;73591;53.714;10.514;2023-11-18T14:10:10;4.63;;;2.03;;
74471;SDS011;73591;53.714;10.514;2023-11-18T14:12:38;4.97;;;2.20;;
74471;SDS011;73591;53.714;10.514;2023-11-18T14:15:04;5.95;;;2.78;;
74471;SDS011;73591;53.714;10.514;2023-11-18T14:17:30;3.85;;;2.03;;
74471;SDS011;73591;53.714;10.514;2023-11-18T14:19:56;4.78;;;2.45;;
74471;SDS011;73591;53.714;10.514;2023-11-18T14:22:21;5.05;;;2.20;;
74471;SDS011;73591;53.714;10.514;2023-11-18T14:24:46;4.15;;;2.28;;
74471;SDS011;73591;53.714;10.514;2023-11-18T14:27:12;4.78;;;1.88;;
74471;SDS011;73591;53.714;10.514;2023-11-18T14:29:38;6.22;;;2.38;;
74471;SDS011;73591;53.714;10.514;2023-11-18T14:32:04;4.85;;;2.42;;
74471;SDS011;73591;53.714;10.514;2023-11-18T14:34:31;6.05;;;2.50;;
74471;SDS011;73591;53.714;10.514;2023-11-18T14:36:56;8.77;;;3.45;;
74471;SDS011;73591;53.714;10.514;2023-11-18T14:39:21;5.80;;;2.70;;
74471;SDS011;73591;53.714;10.514;2023-11-18T14:41:47;5.40;;;2.80;;
74471;SDS011;73591;53.714;10.514;2023-11-18T14:44:13;7.45;;;3.40;;
74471;SDS011;73591;53.714;10.514;2023-11-18T14:46:38;6.32;;;3.58;;
74471;SDS011;73591;53.714;10.514;2023-11-18T14:49:04;7.88;;;3.33;;
74471;SDS011;73591;53.714;10.514;2023-11-18T14:51:31;18.52;;;6.68;;
74471;SDS011;73591;53.714;10.514;2023-11-18T14:53:56;11.90;;;5.45;;
74471;SDS011;73591;53.714;10.514;2023-11-18T14:56:21;7.95;;;3.30;;
74471;SDS011;73591;53.714;10.514;2023-11-18T14:58:47;6.53;;;3.03;;
74471;SDS011;73591;53.714;10.514;2023-11-18T15:01:14;7.90;;;2.35;;
74471;SDS011;73591;53.714;10.514;2023-11-18T15:03:40;5.13;;;2.45;;
74471;SDS011;73591;53.714;10.514;2023-11-18T15:06:05;5.57;;;3.00;;
74471;SDS011;73591;53.714;10.514;2023-11-18T15:08:31;4.53;;;2.55;;
74471;SDS011;73591;53.714;10.514;2023-11-18T15:10:56;4.88;;;2.75;;
74471;SDS011;73591;53.714;10.514;2023-11-18T15:13:25;5.30;;;3.05;;
74471;SDS011;73591;53.714;10.514;2023-11-18T15:15:51;5.72;;;2.92;;